sensor_id;sensor_type;location;lat;lon;timestamp;P1;durP1;ratioP1;P2;durP2;ratioP2
22603;SDS011;11469;49.024;8.246;2022-11-13T00:01:45;59.42;;;27.60;;
22603;SDS011;11469;49.024;8.246;2022-11-13T00:04:10;74.90;;;27.45;;
22603;SDS011;11469;49.024;8.246;2022-11-13T00:06:36;55.88;;;27.52;;
22603;SDS011;11469;49.024;8.246;2022-11-13T00:09:02;72.20;;;28.48;;
22603;SDS011;11469;49.024;8.246;2022-11-13T00:11:27;62.10;;;27.63;;
22603;SDS011;11469;49.024;8.246;2022-11-13T00:13:53;51.53;;;25.77;;
22603;SDS011;11469;49.024;8.246;2022-11-13T00:16:19;73.97;;;28.55;;
22603;SDS011;11469;49.024;8.246;2022-11-13T00:18:46;72.72;;;27.38;;
22603;SDS011;11469;49.024;8.246;2022-11-13T00:21:13;59.88;;;26.50;;
22603;SDS011;11469;49.024;8.246;2022-11-13T00:23:40;55.63;;;26.75;;
22603;SDS011;11469;49.024;8.246;2022-11-13T00:26:07;55.33;;;26.88;;
22603;SDS011;11469;49.024;8.246;2022-11-13T00:28:37;62.22;;;28.88;;
22603;SDS011;11469;49.024;8.246;2022-11-13T00:31:03;67.50;;;31.90;;
22603;SDS011;11469;49.024;8.246;2022-11-13T00:33:30;78.47;;;33.15;;
22603;SDS011;11469;49.024;8.246;2022-11-13T00:36:03;72.55;;;31.30;;
22603;SDS011;11469;49.024;8.246;2022-11-13T00:38:39;68.93;;;29.25;;
22603;SDS011;11469;49.024;8.246;2022-11-13T00:41:05;55.83;;;28.67;;
22603;SDS011;11469;49.024;8.246;2022-11-13T00:43:30;63.38;;;29.08;;
22603;SDS011;11469;49.024;8.246;2022-11-13T00:45:55;85.32;;;30.08;;
22603;SDS011;11469;49.024;8.246;2022-11-13T00:48:21;57.08;;;29.20;;
22603;SDS011;11469;49.024;8.246;2022-11-13T00:50:47;54.17;;;29.10;;
22603;SDS011;11469;49.024;8.246;2022-11-13T00:53:13;67.07;;;30.45;;
22603;SDS011;11469;49.024;8.246;2022-11-13T00:55:38;60.13;;;30.85;;
22603;SDS011;11469;49.024;8.246;2022-11-13T00:58:04;64.57;;;30.25;;
22603;SDS011;11469;49.024;8.246;2022-11-13T01:00:32;57.30;;;30.98;;
22603;SDS011;11469;49.024;8.246;2022-11-13T01:02:58;56.90;;;31.45;;
22603;SDS011;11469;49.024;8.246;2022-11-13T01:05:24;61.53;;;29.75;;
22603;SDS011;11469;49.024;8.246;2022-11-13T01:07:49;55.53;;;28.65;;
22603;SDS011;11469;49.024;8.246;2022-11-13T01:10:15;62.83;;;31.20;;
22603;SDS011;11469;49.024;8.246;2022-11-13T01:12:40;53.53;;;29.30;;
22603;SDS011;11469;49.024;8.246;2022-11-13T01:15:06;56.55;;;31.27;;
22603;SDS011;11469;49.024;8.246;2022-11-13T01:17:31;58.35;;;31.92;;
22603;SDS011;11469;49.024;8.246;2022-11-13T01:19:57;57.80;;;28.85;;
22603;SDS011;11469;49.024;8.246;2022-11-13T01:22:22;49.92;;;27.77;;
22603;SDS011;11469;49.024;8.246;2022-11-13T01:24:48;61.60;;;29.05;;
22603;SDS011;11469;49.024;8.246;2022-11-13T01:27:13;72.32;;;30.42;;
22603;SDS011;11469;49.024;8.246;2022-11-13T01:29:40;62.55;;;32.53;;
22603;SDS011;11469;49.024;8.246;2022-11-13T01:32:05;58.85;;;29.38;;
22603;SDS011;11469;49.024;8.246;2022-11-13T01:34:31;59.20;;;26.92;;
22603;SDS011;11469;49.024;8.246;2022-11-13T01:36:57;51.95;;;28.42;;
22603;SDS011;11469;49.024;8.246;2022-11-13T01:39:22;50.45;;;25.70;;
22603;SDS011;11469;49.024;8.246;2022-11-13T01:41:47;51.40;;;27.45;;
22603;SDS011;11469;49.024;8.246;2022-11-13T01:44:14;50.13;;;27.27;;
22603;SDS011;11469;49.024;8.246;2022-11-13T01:46:42;54.63;;;29.25;;
22603;SDS011;11469;49.024;8.246;2022-11-13T01:51:49;68.65;;;32.85;;
22603;SDS011;11469;49.024;8.246;2022-11-13T01:54:21;61.50;;;30.88;;
22603;SDS011;11469;49.024;8.246;2022-11-13T01:56:50;63.05;;;31.70;;
22603;SDS011;11469;49.024;8.246;2022-11-13T01:59:18;60.90;;;30.10;;
22603;SDS011;11469;49.024;8.246;2022-11-13T02:01:46;63.35;;;30.60;;
22603;SDS011;11469;49.024;8.246;2022-11-13T02:04:13;55.55;;;28.42;;
22603;SDS011;11469;49.024;8.246;2022-11-13T02:06:46;59.80;;;30.73;;
22603;SDS011;11469;49.024;8.246;2022-11-13T02:09:16;61.60;;;29.52;;
22603;SDS011;11469;49.024;8.246;2022-11-13T02:11:44;63.17;;;31.52;;
22603;SDS011;11469;49.024;8.246;2022-11-13T02:14:10;55.22;;;29.40;;
22603;SDS011;11469;49.024;8.246;2022-11-13T02:16:37;59.60;;;31.13;;
22603;SDS011;11469;49.024;8.246;2022-11-13T02:19:09;40.55;;;24.80;;
22603;SDS011;11469;49.024;8.246;2022-11-13T02:21:46;62.55;;;30.00;;
22603;SDS011;11469;49.024;8.246;2022-11-13T02:24:22;48.25;;;26.88;;
22603;SDS011;11469;49.024;8.246;2022-11-13T02:26:48;49.10;;;26.05;;
22603;SDS011;11469;49.024;8.246;2022-11-13T02:29:16;46.13;;;25.48;;
22603;SDS011;11469;49.024;8.246;2022-11-13T02:31:41;46.35;;;26.08;;
22603;SDS011;11469;49.024;8.246;2022-11-13T02:34:07;47.65;;;25.60;;
22603;SDS011;11469;49.024;8.246;2022-11-13T02:36:32;46.47;;;26.38;;
22603;SDS011;11469;49.024;8.246;2022-11-13T02:38:59;40.97;;;23.70;;
22603;SDS011;11469;49.024;8.246;2022-11-13T02:41:29;40.05;;;23.63;;
22603;SDS011;11469;49.024;8.246;2022-11-13T02:43:54;44.20;;;24.92;;
22603;SDS011;11469;49.024;8.246;2022-11-13T02:46:19;42.95;;;22.20;;
22603;SDS011;11469;49.024;8.246;2022-11-13T02:48:45;38.83;;;23.70;;
22603;SDS011;11469;49.024;8.246;2022-11-13T02:51:10;44.65;;;22.65;;
22603;SDS011;11469;49.024;8.246;2022-11-13T02:53:35;37.78;;;21.08;;
22603;SDS011;11469;49.024;8.246;2022-11-13T02:56:01;44.63;;;24.15;;
22603;SDS011;11469;49.024;8.246;2022-11-13T02:58:26;37.85;;;22.92;;
22603;SDS011;11469;49.024;8.246;2022-11-13T03:00:51;38.60;;;23.13;;
22603;SDS011;11469;49.024;8.246;2022-11-13T03:03:17;37.90;;;22.70;;
22603;SDS011;11469;49.024;8.246;2022-11-13T03:05:46;37.70;;;22.40;;
22603;SDS011;11469;49.024;8.246;2022-11-13T03:08:12;39.53;;;23.48;;
22603;SDS011;11469;49.024;8.246;2022-11-13T03:10:38;35.65;;;21.23;;
22603;SDS011;11469;49.024;8.246;2022-11-13T03:13:03;36.22;;;22.13;;
22603;SDS011;11469;49.024;8.246;2022-11-13T03:15:29;36.28;;;21.67;;
22603;SDS011;11469;49.024;8.246;2022-11-13T03:17:54;37.63;;;22.55;;
22603;SDS011;11469;49.024;8.246;2022-11-13T03:20:19;39.35;;;22.40;;
22603;SDS011;11469;49.024;8.246;2022-11-13T03:22:46;35.67;;;22.17;;
22603;SDS011;11469;49.024;8.246;2022-11-13T03:25:11;39.17;;;22.45;;
22603;SDS011;11469;49.024;8.246;2022-11-13T03:27:37;38.00;;;20.92;;
22603;SDS011;11469;49.024;8.246;2022-11-13T03:30:02;45.03;;;22.48;;
22603;SDS011;11469;49.024;8.246;2022-11-13T03:32:28;39.35;;;21.60;;
22603;SDS011;11469;49.024;8.246;2022-11-13T03:34:54;45.67;;;23.48;;
22603;SDS011;11469;49.024;8.246;2022-11-13T03:37:19;44.42;;;24.35;;
22603;SDS011;11469;49.024;8.246;2022-11-13T03:39:45;47.38;;;23.95;;
22603;SDS011;11469;49.024;8.246;2022-11-13T03:42:10;46.33;;;24.50;;
22603;SDS011;11469;49.024;8.246;2022-11-13T03:44:35;49.58;;;24.77;;
22603;SDS011;11469;49.024;8.246;2022-11-13T03:47:01;49.75;;;24.40;;
22603;SDS011;11469;49.024;8.246;2022-11-13T03:49:26;54.03;;;25.25;;
22603;SDS011;11469;49.024;8.246;2022-11-13T03:51:51;49.95;;;26.55;;
22603;SDS011;11469;49.024;8.246;2022-11-13T03:54:17;47.65;;;25.67;;
22603;SDS011;11469;49.024;8.246;2022-11-13T03:56:42;49.10;;;25.55;;
22603;SDS011;11469;49.024;8.246;2022-11-13T03:59:08;54.92;;;25.77;;
22603;SDS011;11469;49.024;8.246;2022-11-13T04:01:33;49.10;;;23.27;;
22603;SDS011;11469;49.024;8.246;2022-11-13T04:03:58;53.80;;;26.45;;
22603;SDS011;11469;49.024;8.246;2022-11-13T04:06:24;52.63;;;26.70;;
22603;SDS011;11469;49.024;8.246;2022-11-13T04:08:49;55.47;;;27.23;;
22603;SDS011;11469;49.024;8.246;2022-11-13T04:11:15;58.63;;;27.27;;
22603;SDS011;11469;49.024;8.246;2022-11-13T04:13:40;49.58;;;26.27;;
22603;SDS011;11469;49.024;8.246;2022-11-13T04:16:05;54.55;;;26.35;;
22603;SDS011;11469;49.024;8.246;2022-11-13T04:18:31;45.08;;;24.38;;
22603;SDS011;11469;49.024;8.246;2022-11-13T04:20:57;53.63;;;25.27;;
22603;SDS011;11469;49.024;8.246;2022-11-13T04:23:24;56.10;;;26.15;;
22603;SDS011;11469;49.024;8.246;2022-11-13T04:25:49;56.08;;;26.23;;
22603;SDS011;11469;49.024;8.246;2022-11-13T04:28:14;53.58;;;26.73;;
22603;SDS011;11469;49.024;8.246;2022-11-13T04:30:40;54.40;;;27.30;;
22603;SDS011;11469;49.024;8.246;2022-11-13T04:33:05;50.15;;;25.48;;
22603;SDS011;11469;49.024;8.246;2022-11-13T04:35:31;51.72;;;26.10;;
22603;SDS011;11469;49.024;8.246;2022-11-13T04:37:57;49.20;;;24.20;;
22603;SDS011;11469;49.024;8.246;2022-11-13T04:40:22;54.80;;;24.40;;
22603;SDS011;11469;49.024;8.246;2022-11-13T04:42:47;53.97;;;27.17;;
22603;SDS011;11469;49.024;8.246;2022-11-13T04:45:14;52.65;;;27.02;;
22603;SDS011;11469;49.024;8.246;2022-11-13T04:47:40;55.08;;;26.05;;
22603;SDS011;11469;49.024;8.246;2022-11-13T04:50:06;49.70;;;24.20;;
22603;SDS011;11469;49.024;8.246;2022-11-13T04:52:31;51.58;;;24.42;;
22603;SDS011;11469;49.024;8.246;2022-11-13T04:54:57;52.33;;;25.90;;
22603;SDS011;11469;49.024;8.246;2022-11-13T04:57:22;54.47;;;27.17;;
22603;SDS011;11469;49.024;8.246;2022-11-13T04:59:48;60.35;;;27.35;;
22603;SDS011;11469;49.024;8.246;2022-11-13T05:02:13;60.75;;;28.63;;
22603;SDS011;11469;49.024;8.246;2022-11-13T05:04:38;66.28;;;30.35;;
22603;SDS011;11469;49.024;8.246;2022-11-13T05:07:04;66.88;;;30.67;;
22603;SDS011;11469;49.024;8.246;2022-11-13T05:09:29;62.53;;;30.35;;
22603;SDS011;11469;49.024;8.246;2022-11-13T05:11:54;69.20;;;30.33;;
22603;SDS011;11469;49.024;8.246;2022-11-13T05:14:20;69.63;;;32.05;;
22603;SDS011;11469;49.024;8.246;2022-11-13T05:16:45;72.30;;;30.30;;
22603;SDS011;11469;49.024;8.246;2022-11-13T05:19:11;75.85;;;32.92;;
22603;SDS011;11469;49.024;8.246;2022-11-13T05:21:36;77.72;;;31.83;;
22603;SDS011;11469;49.024;8.246;2022-11-13T05:24:03;87.68;;;34.05;;
22603;SDS011;11469;49.024;8.246;2022-11-13T05:26:29;81.40;;;33.30;;
22603;SDS011;11469;49.024;8.246;2022-11-13T05:28:55;71.95;;;30.13;;
22603;SDS011;11469;49.024;8.246;2022-11-13T05:31:22;75.00;;;32.70;;
22603;SDS011;11469;49.024;8.246;2022-11-13T05:33:48;73.40;;;30.92;;
22603;SDS011;11469;49.024;8.246;2022-11-13T05:36:14;73.65;;;31.77;;
22603;SDS011;11469;49.024;8.246;2022-11-13T05:38:41;89.63;;;34.65;;
22603;SDS011;11469;49.024;8.246;2022-11-13T05:41:15;77.00;;;31.17;;
22603;SDS011;11469;49.024;8.246;2022-11-13T05:43:43;87.10;;;32.63;;
22603;SDS011;11469;49.024;8.246;2022-11-13T05:46:10;71.55;;;29.95;;
22603;SDS011;11469;49.024;8.246;2022-11-13T05:48:38;64.38;;;29.42;;
22603;SDS011;11469;49.024;8.246;2022-11-13T05:51:08;73.90;;;31.17;;
22603;SDS011;11469;49.024;8.246;2022-11-13T05:53:36;66.88;;;29.73;;
22603;SDS011;11469;49.024;8.246;2022-11-13T05:56:02;65.88;;;30.77;;
22603;SDS011;11469;49.024;8.246;2022-11-13T05:58:30;69.82;;;30.25;;
22603;SDS011;11469;49.024;8.246;2022-11-13T06:01:06;83.35;;;33.40;;
22603;SDS011;11469;49.024;8.246;2022-11-13T06:03:33;91.32;;;37.63;;
22603;SDS011;11469;49.024;8.246;2022-11-13T06:05:58;107.90;;;40.10;;
22603;SDS011;11469;49.024;8.246;2022-11-13T06:08:24;99.95;;;40.35;;
22603;SDS011;11469;49.024;8.246;2022-11-13T06:10:50;118.05;;;42.83;;
22603;SDS011;11469;49.024;8.246;2022-11-13T06:13:15;109.07;;;42.30;;
22603;SDS011;11469;49.024;8.246;2022-11-13T06:15:41;108.40;;;40.58;;
22603;SDS011;11469;49.024;8.246;2022-11-13T06:18:06;118.65;;;40.95;;
22603;SDS011;11469;49.024;8.246;2022-11-13T06:20:35;101.80;;;40.75;;
22603;SDS011;11469;49.024;8.246;2022-11-13T06:23:01;105.22;;;39.60;;
22603;SDS011;11469;49.024;8.246;2022-11-13T06:25:27;81.72;;;34.65;;
22603;SDS011;11469;49.024;8.246;2022-11-13T06:27:53;66.63;;;28.15;;
22603;SDS011;11469;49.024;8.246;2022-11-13T06:30:18;72.35;;;31.77;;
22603;SDS011;11469;49.024;8.246;2022-11-13T06:32:44;72.50;;;31.23;;
22603;SDS011;11469;49.024;8.246;2022-11-13T06:35:16;78.72;;;32.95;;
22603;SDS011;11469;49.024;8.246;2022-11-13T06:37:41;72.60;;;31.20;;
22603;SDS011;11469;49.024;8.246;2022-11-13T06:40:07;76.53;;;32.58;;
22603;SDS011;11469;49.024;8.246;2022-11-13T06:42:32;69.22;;;31.27;;
22603;SDS011;11469;49.024;8.246;2022-11-13T06:44:58;71.63;;;31.13;;
22603;SDS011;11469;49.024;8.246;2022-11-13T06:47:23;66.22;;;28.33;;
22603;SDS011;11469;49.024;8.246;2022-11-13T06:49:49;53.67;;;26.73;;
22603;SDS011;11469;49.024;8.246;2022-11-13T06:52:14;59.88;;;27.27;;
22603;SDS011;11469;49.024;8.246;2022-11-13T06:54:39;62.00;;;27.00;;
22603;SDS011;11469;49.024;8.246;2022-11-13T06:57:05;68.50;;;29.65;;
22603;SDS011;11469;49.024;8.246;2022-11-13T06:59:30;56.38;;;27.17;;
22603;SDS011;11469;49.024;8.246;2022-11-13T07:01:55;54.97;;;26.52;;
22603;SDS011;11469;49.024;8.246;2022-11-13T07:04:21;52.58;;;25.67;;
22603;SDS011;11469;49.024;8.246;2022-11-13T07:06:46;55.80;;;25.30;;
22603;SDS011;11469;49.024;8.246;2022-11-13T07:09:11;68.43;;;31.02;;
22603;SDS011;11469;49.024;8.246;2022-11-13T07:11:37;73.90;;;34.95;;
22603;SDS011;11469;49.024;8.246;2022-11-13T07:14:02;90.40;;;34.55;;
22603;SDS011;11469;49.024;8.246;2022-11-13T07:16:27;69.35;;;30.95;;
22603;SDS011;11469;49.024;8.246;2022-11-13T07:18:53;71.55;;;33.28;;
22603;SDS011;11469;49.024;8.246;2022-11-13T07:21:19;62.90;;;29.90;;
22603;SDS011;11469;49.024;8.246;2022-11-13T07:23:46;57.92;;;27.75;;
22603;SDS011;11469;49.024;8.246;2022-11-13T07:26:13;54.03;;;25.27;;
22603;SDS011;11469;49.024;8.246;2022-11-13T07:28:38;49.22;;;25.73;;
22603;SDS011;11469;49.024;8.246;2022-11-13T07:31:04;47.50;;;23.63;;
22603;SDS011;11469;49.024;8.246;2022-11-13T07:33:30;53.15;;;25.35;;
22603;SDS011;11469;49.024;8.246;2022-11-13T07:35:56;64.20;;;28.42;;
22603;SDS011;11469;49.024;8.246;2022-11-13T07:38:23;61.13;;;27.55;;
22603;SDS011;11469;49.024;8.246;2022-11-13T07:40:48;63.55;;;27.42;;
22603;SDS011;11469;49.024;8.246;2022-11-13T07:43:14;52.55;;;27.05;;
22603;SDS011;11469;49.024;8.246;2022-11-13T07:45:40;67.72;;;28.63;;
22603;SDS011;11469;49.024;8.246;2022-11-13T07:48:05;49.92;;;24.00;;
22603;SDS011;11469;49.024;8.246;2022-11-13T07:50:32;47.53;;;22.50;;
22603;SDS011;11469;49.024;8.246;2022-11-13T07:53:00;50.17;;;24.98;;
22603;SDS011;11469;49.024;8.246;2022-11-13T07:55:28;54.90;;;27.15;;
22603;SDS011;11469;49.024;8.246;2022-11-13T07:57:54;53.17;;;24.80;;
22603;SDS011;11469;49.024;8.246;2022-11-13T08:00:22;55.92;;;26.75;;
22603;SDS011;11469;49.024;8.246;2022-11-13T08:02:48;42.45;;;22.50;;
22603;SDS011;11469;49.024;8.246;2022-11-13T08:05:14;45.30;;;23.52;;
22603;SDS011;11469;49.024;8.246;2022-11-13T08:07:39;42.50;;;21.58;;
22603;SDS011;11469;49.024;8.246;2022-11-13T08:10:05;40.63;;;19.58;;
22603;SDS011;11469;49.024;8.246;2022-11-13T08:12:31;36.92;;;20.40;;
22603;SDS011;11469;49.024;8.246;2022-11-13T08:14:56;38.05;;;19.17;;
22603;SDS011;11469;49.024;8.246;2022-11-13T08:17:21;39.72;;;21.40;;
22603;SDS011;11469;49.024;8.246;2022-11-13T08:19:47;39.33;;;20.95;;
22603;SDS011;11469;49.024;8.246;2022-11-13T08:22:12;43.20;;;22.85;;
22603;SDS011;11469;49.024;8.246;2022-11-13T08:24:38;37.17;;;19.55;;
22603;SDS011;11469;49.024;8.246;2022-11-13T08:27:04;39.72;;;20.83;;
22603;SDS011;11469;49.024;8.246;2022-11-13T08:29:30;65.28;;;27.52;;
22603;SDS011;11469;49.024;8.246;2022-11-13T08:31:56;52.78;;;24.40;;
22603;SDS011;11469;49.024;8.246;2022-11-13T08:34:21;48.40;;;21.52;;
22603;SDS011;11469;49.024;8.246;2022-11-13T08:36:46;34.03;;;18.90;;
22603;SDS011;11469;49.024;8.246;2022-11-13T08:39:12;31.75;;;18.50;;
22603;SDS011;11469;49.024;8.246;2022-11-13T08:41:38;35.38;;;20.02;;
22603;SDS011;11469;49.024;8.246;2022-11-13T08:44:03;30.48;;;18.27;;
22603;SDS011;11469;49.024;8.246;2022-11-13T08:46:29;33.35;;;17.77;;
22603;SDS011;11469;49.024;8.246;2022-11-13T08:48:54;32.08;;;18.80;;
22603;SDS011;11469;49.024;8.246;2022-11-13T08:51:20;30.80;;;18.10;;
22603;SDS011;11469;49.024;8.246;2022-11-13T08:53:45;29.60;;;16.90;;
22603;SDS011;11469;49.024;8.246;2022-11-13T08:56:11;28.35;;;15.73;;
22603;SDS011;11469;49.024;8.246;2022-11-13T08:58:36;29.05;;;16.95;;
22603;SDS011;11469;49.024;8.246;2022-11-13T09:01:02;29.73;;;17.67;;
22603;SDS011;11469;49.024;8.246;2022-11-13T09:03:28;34.13;;;17.98;;
22603;SDS011;11469;49.024;8.246;2022-11-13T09:05:54;39.72;;;22.30;;
22603;SDS011;11469;49.024;8.246;2022-11-13T09:08:19;33.25;;;19.60;;
22603;SDS011;11469;49.024;8.246;2022-11-13T09:10:45;25.67;;;15.50;;
22603;SDS011;11469;49.024;8.246;2022-11-13T09:13:11;33.75;;;15.55;;
22603;SDS011;11469;49.024;8.246;2022-11-13T09:15:37;23.92;;;14.27;;
22603;SDS011;11469;49.024;8.246;2022-11-13T09:18:03;27.92;;;16.05;;
22603;SDS011;11469;49.024;8.246;2022-11-13T09:20:29;26.42;;;15.43;;
22603;SDS011;11469;49.024;8.246;2022-11-13T09:22:57;25.92;;;15.43;;
22603;SDS011;11469;49.024;8.246;2022-11-13T09:25:23;26.88;;;16.38;;
22603;SDS011;11469;49.024;8.246;2022-11-13T09:27:55;27.73;;;14.85;;
22603;SDS011;11469;49.024;8.246;2022-11-13T09:30:24;26.80;;;16.05;;
22603;SDS011;11469;49.024;8.246;2022-11-13T09:32:51;25.48;;;15.63;;
22603;SDS011;11469;49.024;8.246;2022-11-13T09:35:21;23.15;;;14.15;;
22603;SDS011;11469;49.024;8.246;2022-11-13T09:38:10;29.70;;;14.43;;
22603;SDS011;11469;49.024;8.246;2022-11-13T09:40:41;27.77;;;15.43;;
22603;SDS011;11469;49.024;8.246;2022-11-13T09:46:00;25.05;;;15.20;;
22603;SDS011;11469;49.024;8.246;2022-11-13T09:48:51;25.45;;;14.85;;
22603;SDS011;11469;49.024;8.246;2022-11-13T09:51:21;23.58;;;13.90;;
22603;SDS011;11469;49.024;8.246;2022-11-13T09:53:51;24.20;;;13.73;;
22603;SDS011;11469;49.024;8.246;2022-11-13T09:56:20;22.35;;;13.93;;
22603;SDS011;11469;49.024;8.246;2022-11-13T09:58:53;23.45;;;13.48;;
22603;SDS011;11469;49.024;8.246;2022-11-13T10:01:27;23.15;;;13.55;;
22603;SDS011;11469;49.024;8.246;2022-11-13T10:04:13;21.95;;;12.75;;
22603;SDS011;11469;49.024;8.246;2022-11-13T10:07:45;20.55;;;12.85;;
22603;SDS011;11469;49.024;8.246;2022-11-13T10:12:29;26.73;;;15.00;;
22603;SDS011;11469;49.024;8.246;2022-11-13T10:14:59;23.50;;;14.23;;
22603;SDS011;11469;49.024;8.246;2022-11-13T10:20:10;26.65;;;14.88;;
22603;SDS011;11469;49.024;8.246;2022-11-13T10:25:17;27.17;;;14.90;;
22603;SDS011;11469;49.024;8.246;2022-11-13T10:27:48;19.90;;;11.73;;
22603;SDS011;11469;49.024;8.246;2022-11-13T10:30:18;21.10;;;12.85;;
22603;SDS011;11469;49.024;8.246;2022-11-13T10:32:44;20.52;;;12.48;;
22603;SDS011;11469;49.024;8.246;2022-11-13T10:41:12;31.23;;;18.25;;
22603;SDS011;11469;49.024;8.246;2022-11-13T10:43:46;32.97;;;18.17;;
22603;SDS011;11469;49.024;8.246;2022-11-13T10:46:20;37.03;;;20.98;;
22603;SDS011;11469;49.024;8.246;2022-11-13T10:48:47;35.70;;;19.52;;
22603;SDS011;11469;49.024;8.246;2022-11-13T10:51:31;35.55;;;19.98;;
22603;SDS011;11469;49.024;8.246;2022-11-13T10:53:59;38.20;;;20.10;;
22603;SDS011;11469;49.024;8.246;2022-11-13T11:01:36;39.75;;;22.13;;
22603;SDS011;11469;49.024;8.246;2022-11-13T11:04:05;39.55;;;22.15;;
22603;SDS011;11469;49.024;8.246;2022-11-13T11:06:35;38.20;;;22.05;;
22603;SDS011;11469;49.024;8.246;2022-11-13T11:09:06;41.55;;;22.25;;
22603;SDS011;11469;49.024;8.246;2022-11-13T11:11:40;35.95;;;20.65;;
22603;SDS011;11469;49.024;8.246;2022-11-13T11:14:30;46.80;;;22.40;;
22603;SDS011;11469;49.024;8.246;2022-11-13T11:17:02;38.97;;;22.30;;
22603;SDS011;11469;49.024;8.246;2022-11-13T11:19:29;39.60;;;22.60;;
22603;SDS011;11469;49.024;8.246;2022-11-13T11:25:04;37.00;;;20.90;;
22603;SDS011;11469;49.024;8.246;2022-11-13T11:27:38;42.45;;;22.80;;
22603;SDS011;11469;49.024;8.246;2022-11-13T11:30:23;39.45;;;23.42;;
22603;SDS011;11469;49.024;8.246;2022-11-13T11:33:08;38.95;;;23.13;;
22603;SDS011;11469;49.024;8.246;2022-11-13T11:35:45;43.92;;;22.88;;
22603;SDS011;11469;49.024;8.246;2022-11-13T11:40:44;35.58;;;20.42;;
22603;SDS011;11469;49.024;8.246;2022-11-13T11:43:33;40.90;;;22.65;;
22603;SDS011;11469;49.024;8.246;2022-11-13T11:46:13;39.65;;;21.33;;
22603;SDS011;11469;49.024;8.246;2022-11-13T11:48:46;37.88;;;20.85;;
22603;SDS011;11469;49.024;8.246;2022-11-13T11:54:08;36.95;;;19.50;;
22603;SDS011;11469;49.024;8.246;2022-11-13T11:56:44;33.15;;;19.17;;
22603;SDS011;11469;49.024;8.246;2022-11-13T12:10:45;30.67;;;18.55;;
22603;SDS011;11469;49.024;8.246;2022-11-13T12:13:33;30.17;;;17.83;;
22603;SDS011;11469;49.024;8.246;2022-11-13T12:16:14;26.63;;;15.75;;
22603;SDS011;11469;49.024;8.246;2022-11-13T12:27:38;23.88;;;13.73;;
22603;SDS011;11469;49.024;8.246;2022-11-13T12:35:20;25.38;;;14.38;;
22603;SDS011;11469;49.024;8.246;2022-11-13T12:37:56;25.38;;;14.40;;
22603;SDS011;11469;49.024;8.246;2022-11-13T12:40:32;23.73;;;13.70;;
22603;SDS011;11469;49.024;8.246;2022-11-13T12:43:11;21.27;;;12.88;;
22603;SDS011;11469;49.024;8.246;2022-11-13T12:50:55;22.10;;;12.63;;
22603;SDS011;11469;49.024;8.246;2022-11-13T12:53:24;20.33;;;13.10;;
22603;SDS011;11469;49.024;8.246;2022-11-13T12:55:56;27.73;;;15.52;;
22603;SDS011;11469;49.024;8.246;2022-11-13T12:58:30;21.52;;;12.60;;
22603;SDS011;11469;49.024;8.246;2022-11-13T13:01:01;22.27;;;13.93;;
22603;SDS011;11469;49.024;8.246;2022-11-13T13:14:34;18.20;;;10.82;;
22603;SDS011;11469;49.024;8.246;2022-11-13T13:17:35;16.33;;;9.80;;
22603;SDS011;11469;49.024;8.246;2022-11-13T13:20:57;18.13;;;10.10;;
22603;SDS011;11469;49.024;8.246;2022-11-13T13:22:56;19.67;;;10.25;;
22603;SDS011;11469;49.024;8.246;2022-11-13T13:27:55;17.67;;;10.40;;
22603;SDS011;11469;49.024;8.246;2022-11-13T13:30:22;16.63;;;9.48;;
22603;SDS011;11469;49.024;8.246;2022-11-13T13:38:40;20.45;;;9.75;;
22603;SDS011;11469;49.024;8.246;2022-11-13T13:46:49;15.40;;;9.90;;
22603;SDS011;11469;49.024;8.246;2022-11-13T13:49:16;18.80;;;10.25;;
22603;SDS011;11469;49.024;8.246;2022-11-13T13:51:50;19.13;;;9.38;;
22603;SDS011;11469;49.024;8.246;2022-11-13T13:54:18;13.98;;;9.07;;
22603;SDS011;11469;49.024;8.246;2022-11-13T13:56:47;16.58;;;8.65;;
22603;SDS011;11469;49.024;8.246;2022-11-13T13:59:35;17.10;;;9.60;;
22603;SDS011;11469;49.024;8.246;2022-11-13T14:02:00;17.35;;;8.85;;
22603;SDS011;11469;49.024;8.246;2022-11-13T14:04:32;19.70;;;10.57;;
22603;SDS011;11469;49.024;8.246;2022-11-13T14:06:59;16.80;;;8.85;;
22603;SDS011;11469;49.024;8.246;2022-11-13T14:09:27;16.95;;;9.60;;
22603;SDS011;11469;49.024;8.246;2022-11-13T14:14:27;17.83;;;9.65;;
22603;SDS011;11469;49.024;8.246;2022-11-13T14:16:54;19.10;;;9.77;;
22603;SDS011;11469;49.024;8.246;2022-11-13T14:19:21;16.55;;;9.80;;
22603;SDS011;11469;49.024;8.246;2022-11-13T14:21:47;17.98;;;10.27;;
22603;SDS011;11469;49.024;8.246;2022-11-13T14:24:23;20.30;;;11.18;;
22603;SDS011;11469;49.024;8.246;2022-11-13T14:26:53;21.70;;;11.17;;
22603;SDS011;11469;49.024;8.246;2022-11-13T14:29:22;17.80;;;9.93;;
22603;SDS011;11469;49.024;8.246;2022-11-13T14:32:01;17.13;;;10.13;;
22603;SDS011;11469;49.024;8.246;2022-11-13T14:34:44;16.75;;;10.38;;
22603;SDS011;11469;49.024;8.246;2022-11-13T14:39:53;21.33;;;11.20;;
22603;SDS011;11469;49.024;8.246;2022-11-13T14:42:23;20.50;;;11.43;;
22603;SDS011;11469;49.024;8.246;2022-11-13T14:44:52;18.38;;;11.43;;
22603;SDS011;11469;49.024;8.246;2022-11-13T14:47:27;21.20;;;11.40;;
22603;SDS011;11469;49.024;8.246;2022-11-13T14:50:34;22.13;;;12.13;;
22603;SDS011;11469;49.024;8.246;2022-11-13T14:52:59;19.88;;;11.30;;
22603;SDS011;11469;49.024;8.246;2022-11-13T14:55:30;21.13;;;11.38;;
22603;SDS011;11469;49.024;8.246;2022-11-13T14:57:57;20.38;;;12.15;;
22603;SDS011;11469;49.024;8.246;2022-11-13T15:00:27;21.95;;;13.05;;
22603;SDS011;11469;49.024;8.246;2022-11-13T15:02:55;25.70;;;13.85;;
22603;SDS011;11469;49.024;8.246;2022-11-13T15:05:20;23.75;;;12.95;;
22603;SDS011;11469;49.024;8.246;2022-11-13T15:07:46;20.48;;;12.52;;
22603;SDS011;11469;49.024;8.246;2022-11-13T15:10:13;22.58;;;13.35;;
22603;SDS011;11469;49.024;8.246;2022-11-13T15:12:41;24.55;;;14.40;;
22603;SDS011;11469;49.024;8.246;2022-11-13T15:15:18;25.95;;;15.48;;
22603;SDS011;11469;49.024;8.246;2022-11-13T15:17:45;25.48;;;15.15;;
22603;SDS011;11469;49.024;8.246;2022-11-13T15:20:13;30.50;;;17.30;;
22603;SDS011;11469;49.024;8.246;2022-11-13T15:22:41;32.85;;;18.50;;
22603;SDS011;11469;49.024;8.246;2022-11-13T15:25:16;35.15;;;19.52;;
22603;SDS011;11469;49.024;8.246;2022-11-13T15:27:44;29.77;;;16.65;;
22603;SDS011;11469;49.024;8.246;2022-11-13T15:30:09;26.85;;;15.23;;
22603;SDS011;11469;49.024;8.246;2022-11-13T15:32:35;33.63;;;17.35;;
22603;SDS011;11469;49.024;8.246;2022-11-13T15:35:02;43.17;;;23.08;;
22603;SDS011;11469;49.024;8.246;2022-11-13T15:37:28;53.05;;;25.40;;
22603;SDS011;11469;49.024;8.246;2022-11-13T15:39:54;49.78;;;24.45;;
22603;SDS011;11469;49.024;8.246;2022-11-13T15:42:20;41.90;;;21.05;;
22603;SDS011;11469;49.024;8.246;2022-11-13T15:44:59;31.90;;;18.88;;
22603;SDS011;11469;49.024;8.246;2022-11-13T15:49:50;23.83;;;14.70;;
22603;SDS011;11469;49.024;8.246;2022-11-13T15:52:15;23.83;;;14.30;;
22603;SDS011;11469;49.024;8.246;2022-11-13T15:54:41;32.95;;;20.27;;
22603;SDS011;11469;49.024;8.246;2022-11-13T15:57:16;34.80;;;23.70;;
22603;SDS011;11469;49.024;8.246;2022-11-13T15:59:46;30.95;;;19.40;;
22603;SDS011;11469;49.024;8.246;2022-11-13T16:02:12;27.08;;;17.38;;
22603;SDS011;11469;49.024;8.246;2022-11-13T16:04:37;27.80;;;16.08;;